Terminal Aerodrome Forecast
Issued by NWS

Current Version | Previous Version | Graphics & Text | Print | Product List | Glossary On
Versions: 1 2 3 4 5 6 7 8 9 10 11 12 13 14 15 16 17 18 19 20 21 22 23 24
884
FTUS41 KRLX 010240 AAA
TAFCKB
TAF AMD
KCKB 010240Z 0103/0124 22005KT 4SM -SHRA OVC015
     FM010300 26015G35KT 3SM SHRA OVC015
     FM010400 26010G16KT P6SM BKN070
     FM011100 26008KT P6SM BKN025=

USA.gov is the U.S. government's official web portal to all federal, state and local government web resources and services.